Anderson Regional Airport Anderson US
ICAO: KAND
IATA: AND
Category: Medium
Scheduled Services: No

Elevation: 782 ft
TransAlt. 18000 ft.

Airport Communications:
GREER APP/DEP:118.8
ASOS:120.675
CTAF:123.6
RDO:122.2
UNICOM:122.95

KAND Zoom In..

If you have problems with the map follow the link
https://www.worldairports.se/pages/airport.php?
ICAO=KAND

Runways:

(A) RW 05 length 6002 ft width 149 ft
ILS 111.90 / hdg 51

(B) RW 17 length 4996 ft width 149 ft
---- / hdg 171

(C) RW 23 length 6002 ft width 149 ft
---- / hdg 231

(D) RW 35 length 4996 ft width 149 ft
---- / hdg 351

Location; KAND
Day. 08 / Time. 11.56 Zulu
* Altimeter: 30.40
* Temperature: 06° c. 42.8°f.
* Wind from: 060° Speed 08 kn.
Dewpoint: -02° c.
Visibility: 10 Statute Miles.
Clouds: Overcast 6500 ft.

KAND 081156Z AUTO 06008KT 10SM OVC065 06/M02 A3040 RMK AO2 SLP296 T00561017 10072 20050 53011


Wind From 060°
Speed 08 kn.

 
 
jpsmedia worldairports.se 2019   terms of use